Time;durP1;ratioP1;P1;durP2;ratioP2;P2;SDS_P1;SDS_P2;PMS_P1;PMS_P2;Temp;Humidity;BMP_temperature;BMP_pressure;BME280_temperature;BME280_humidity;BME280_pressure;Samples;Min_cycle;Max_cycle;Signal;HPM_P1;HPM_P2
2022/07/25 00:01:41;;;;;;;;;;;;;;;;;;5034187;28;19920;-76
2022/07/25 00:04:07;;;;;;;;;;;;;;;;;;5026108;28;20295;-76
2022/07/25 00:06:33;;;;;;;;;;;;;;;;;;5029582;28;19915;-76
2022/07/25 00:09:00;;;;;;;;;;;;;;;;;;5018364;28;19920;-76
2022/07/25 00:11:26;;;;;;;;;;;;;;;;;;5029520;28;19913;-76
2022/07/25 00:13:52;;;;;;;;;;;;;;;;;;5018201;28;20413;-77
2022/07/25 00:16:18;;;;;;;;;;;;;;;;;;5013258;28;20410;-76
2022/07/25 00:18:44;;;;;;;;;;;;;;;;;;5025676;28;19917;-76
2022/07/25 00:21:10;;;;;;;;;;;;;;;;;;5029338;28;20388;-76
2022/07/25 00:23:37;;;;;;;;;;;;;;;;;;5023668;28;20281;-76
2022/07/25 00:26:03;;;;;;;;;;;;;;;;;;5021990;28;19913;-77
2022/07/25 00:28:29;;;;;;;;;;;;;;;;;;5026253;28;20381;-77
2022/07/25 00:30:55;;;;;;;;;;;;;;;;;;5020691;28;20292;-77
2022/07/25 00:33:21;;;;;;;;;;;;;;;;;;5016979;28;19920;-77
2022/07/25 00:35:47;;;;;;;;;;;;;;;;;;5028034;28;19921;-76
2022/07/25 00:38:13;;;;;;;;;;;;;;;;;;5023397;28;19940;-77
2022/07/25 00:40:40;;;;;;;;;;;;;;;;;;5030379;28;19909;-76
2022/07/25 00:43:06;;;;;;;;;;;;;;;;;;5023610;28;20016;-76
2022/07/25 00:45:32;;;;;;;;;;;;;;;;;;5024849;28;19915;-76
2022/07/25 00:47:58;;;;;;;;;;;;;;;;;;5028436;28;19909;-77
2022/07/25 00:50:24;;;;;;;;;;;;;;;;;;5022676;28;19916;-76
2022/07/25 00:52:50;;;;;;;;;;;;;;;;;;5028746;28;19913;-76
2022/07/25 00:55:16;;;;;;;;;;;;;;;;;;5030029;28;19925;-76
2022/07/25 00:57:43;;;;;;;;;;;;;;;;;;5025170;28;19935;-77
2022/07/25 01:00:09;;;;;;;;;;;;;;;;;;5029756;28;19909;-77
2022/07/25 01:02:35;;;;;;;;;;;;;;;;;;5026214;28;19920;-76
2022/07/25 01:05:01;;;;;;;;;;;;;;;;;;5026793;28;20341;-77
2022/07/25 01:07:27;;;;;;;;;;;;;;;;;;5015351;28;20277;-77
2022/07/25 01:09:53;;;;;;;;;;;;;;;;;;5016054;28;19955;-77
2022/07/25 01:12:20;;;;;;;;;;;;;;;;;;5020357;28;19909;-77
2022/07/25 01:14:46;;;;;;;;;;;;;;;;;;5018711;28;20300;-77
2022/07/25 01:17:12;;;;;;;;;;;;;;;;;;5027809;28;19909;-77
2022/07/25 01:19:38;;;;;;;;;;;;;;;;;;5018092;28;19914;-77
2022/07/25 01:22:05;;;;;;;;;;;;;;;;;;5028399;28;19924;-76
2022/07/25 01:24:31;;;;;;;;;;;;;;;;;;5022733;28;19917;-76
2022/07/25 01:26:57;;;;;;;;;;;;;;;;;;5022871;28;19918;-76
2022/07/25 01:29:23;;;;;;;;;;;;;;;;;;5026210;28;19920;-77
2022/07/25 01:31:50;;;;;;;;;;;;;;;;;;5016889;28;19917;-77
2022/07/25 01:34:16;;;;;;;;;;;;;;;;;;5019037;28;19936;-77
2022/07/25 01:36:42;;;;;;;;;;;;;;;;;;5019755;28;19917;-77
2022/07/25 01:39:08;;;;;;;;;;;;;;;;;;5030227;28;19917;-77
2022/07/25 01:41:34;;;;;;;;;;;;;;;;;;5018556;28;19913;-77
2022/07/25 01:44:00;;;;;;;;;;;;;;;;;;5020449;28;20380;-77
2022/07/25 01:46:26;;;;;;;;;;;;;;;;;;5022183;28;20278;-77
2022/07/25 01:48:53;;;;;;;;;;;;;;;;;;5021276;28;19914;-77
2022/07/25 01:51:19;;;;;;;;;;;;;;;;;;5022738;28;20524;-77
2022/07/25 01:53:45;;;;;;;;;;;;;;;;;;5028185;28;19917;-77
2022/07/25 01:56:11;;;;;;;;;;;;;;;;;;5022963;28;19922;-77
2022/07/25 01:58:37;;;;;;;;;;;;;;;;;;5018252;28;19919;-78
2022/07/25 02:01:03;;;;;;;;;;;;;;;;;;5030309;28;19931;-78
2022/07/25 02:03:30;;;;;;;;;;;;;;;;;;5028584;28;19913;-78
2022/07/25 02:05:56;;;;;;;;;;;;;;;;;;5022738;28;20266;-77
2022/07/25 02:08:22;;;;;;;;;;;;;;;;;;5024541;28;19910;-77
2022/07/25 02:10:48;;;;;;;;;;;;;;;;;;5014335;28;19913;-78
2022/07/25 02:13:14;;;;;;;;;;;;;;;;;;5013856;28;19935;-78
2022/07/25 02:15:40;;;;;;;;;;;;;;;;;;5021671;28;19921;-77
2022/07/25 02:18:07;;;;;;;;;;;;;;;;;;5015310;28;20405;-77
2022/07/25 02:20:33;;;;;;;;;;;;;;;;;;5022177;28;19909;-77
2022/07/25 02:22:59;;;;;;;;;;;;;;;;;;5024346;28;19910;-77
2022/07/25 02:25:25;;;;;;;;;;;;;;;;;;5021642;28;19920;-77
2022/07/25 02:27:51;;;;;;;;;;;;;;;;;;5014857;28;20378;-78
2022/07/25 02:30:17;;;;;;;;;;;;;;;;;;5019984;28;19932;-77
2022/07/25 02:32:43;;;;;;;;;;;;;;;;;;5021293;28;19913;-77
2022/07/25 02:35:10;;;;;;;;;;;;;;;;;;5023614;28;19921;-77
2022/07/25 02:37:36;;;;;;;;;;;;;;;;;;5019294;28;19924;-78
2022/07/25 02:40:02;;;;;;;;;;;;;;;;;;5027816;28;19910;-78
2022/07/25 02:42:28;;;;;;;;;;;;;;;;;;5017619;28;20609;-77
2022/07/25 02:44:54;;;;;;;;;;;;;;;;;;5033190;28;19939;-78
2022/07/25 02:47:20;;;;;;;;;;;;;;;;;;5026757;28;19915;-78
2022/07/25 02:49:47;;;;;;;;;;;;;;;;;;5020621;28;19914;-78
2022/07/25 02:52:13;;;;;;;;;;;;;;;;;;5025523;28;19909;-78
2022/07/25 02:54:39;;;;;;;;;;;;;;;;;;5022916;28;19924;-78
2022/07/25 02:57:05;;;;;;;;;;;;;;;;;;5023248;28;19910;-77
2022/07/25 02:59:31;;;;;;;;;;;;;;;;;;5029124;28;20369;-78
2022/07/25 03:01:57;;;;;;;;;;;;;;;;;;5021563;28;19931;-77
2022/07/25 03:04:23;;;;;;;;;;;;;;;;;;5025361;28;19915;-78
2022/07/25 03:06:50;;;;;;;;;;;;;;;;;;5031007;28;19920;-77
2022/07/25 03:09:16;;;;;;;;;;;;;;;;;;5031501;28;19918;-77
2022/07/25 03:11:42;;;;;;;;;;;;;;;;;;5027284;28;20419;-77
2022/07/25 03:14:08;;;;;;;;;;;;;;;;;;5027977;28;20247;-77
2022/07/25 03:16:34;;;;;;;;;;;;;;;;;;5040140;28;19909;-78
2022/07/25 03:19:01;;;;;;;;;;;;;;;;;;5019649;28;19914;-78
2022/07/25 03:21:27;;;;;;;;;;;;;;;;;;5029395;28;19915;-78
2022/07/25 03:23:53;;;;;;;;;;;;;;;;;;5022941;28;20257;-78
2022/07/25 03:26:19;;;;;;;;;;;;;;;;;;5023780;28;19932;-78
2022/07/25 03:28:45;;;;;;;;;;;;;;;;;;5032135;28;19909;-78
2022/07/25 03:31:11;;;;;;;;;;;;;;;;;;5032490;28;19931;-78
2022/07/25 03:33:38;;;;;;;;;;;;;;;;;;5029966;28;19920;-78
2022/07/25 03:36:04;;;;;;;;;;;;;;;;;;5022886;28;19917;-78
2022/07/25 03:38:30;;;;;;;;;;;;;;;;;;5041244;28;19920;-78
2022/07/25 03:40:56;;;;;;;;;;;;;;;;;;5030481;28;19917;-78
2022/07/25 03:43:22;;;;;;;;;;;;;;;;;;5030945;28;19909;-78
2022/07/25 03:45:48;;;;;;;;;;;;;;;;;;5017095;28;20277;-78
2022/07/25 03:48:14;;;;;;;;;;;;;;;;;;5017558;28;19916;-78
2022/07/25 03:50:41;;;;;;;;;;;;;;;;;;5021838;28;19919;-77
2022/07/25 03:53:07;;;;;;;;;;;;;;;;;;5016550;28;19909;-77
2022/07/25 03:55:33;;;;;;;;;;;;;;;;;;5027103;28;19921;-77
2022/07/25 03:57:59;;;;;;;;;;;;;;;;;;5021848;28;19925;-78
2022/07/25 04:00:25;;;;;;;;;;;;;;;;;;5031836;28;19917;-78
2022/07/25 04:02:51;;;;;;;;;;;;;;;;;;5021144;28;19920;-77
2022/07/25 04:05:18;;;;;;;;;;;;;;;;;;5022961;28;20371;-77
2022/07/25 04:07:44;;;;;;;;;;;;;;;;;;5025304;28;20231;-79
2022/07/25 04:10:10;;;;;;;;;;;;;;;;;;5027278;28;19920;-77
2022/07/25 04:12:37;;;;;;;;;;;;;;;;;;5025426;28;19921;-77
2022/07/25 04:15:03;;;;;;;;;;;;;;;;;;5020908;28;19927;-77
2022/07/25 04:17:30;;;;;;;;;;;;;;;;;;5031542;28;19909;-78
2022/07/25 04:19:56;;;;;;;;;;;;;;;;;;5027885;28;20466;-78
2022/07/25 04:22:22;;;;;;;;;;;;;;;;;;5034528;28;19913;-77
2022/07/25 04:24:48;;;;;;;;;;;;;;;;;;5027223;28;19920;-77
2022/07/25 04:27:14;;;;;;;;;;;;;;;;;;5028190;28;19909;-77
2022/07/25 04:29:40;;;;;;;;;;;;;;;;;;5024394;28;19920;-77
2022/07/25 04:32:07;;;;;;;;;;;;;;;;;;5029491;28;19921;-77
2022/07/25 04:34:33;;;;;;;;;;;;;;;;;;5031821;28;19917;-78
2022/07/25 04:36:59;;;;;;;;;;;;;;;;;;5025226;28;19936;-78
2022/07/25 04:39:25;;;;;;;;;;;;;;;;;;5023305;28;19913;-77
2022/07/25 04:41:51;;;;;;;;;;;;;;;;;;5027689;28;19932;-77
2022/07/25 04:44:17;;;;;;;;;;;;;;;;;;5036276;28;20369;-78
2022/07/25 04:46:43;;;;;;;;;;;;;;;;;;5017989;28;19909;-77
2022/07/25 04:49:10;;;;;;;;;;;;;;;;;;5017363;28;19995;-77
2022/07/25 04:51:36;;;;;;;;;;;;;;;;;;5029070;28;19909;-77
2022/07/25 04:54:02;;;;;;;;;;;;;;;;;;5013497;28;19916;-77
2022/07/25 04:56:28;;;;;;;;;;;;;;;;;;5014104;28;19924;-77
2022/07/25 04:58:55;;;;;;;;;;;;;;;;;;5023140;28;19913;-77
2022/07/25 05:01:21;;;;;;;;;;;;;;;;;;5030352;28;19919;-77
2022/07/25 05:03:48;;;;;;;;;;;;;;;;;;5018459;28;19916;-76
2022/07/25 05:06:14;;;;;;;;;;;;;;;;;;5016133;28;19919;-77
2022/07/25 05:08:40;;;;;;;;;;;;;;;;;;5025570;28;19913;-76
2022/07/25 05:11:06;;;;;;;;;;;;;;;;;;5030072;28;19924;-77
2022/07/25 05:13:32;;;;;;;;;;;;;;;;;;5023654;28;19921;-77
2022/07/25 05:15:58;;;;;;;;;;;;;;;;;;5019917;28;19925;-77
2022/07/25 05:18:25;;;;;;;;;;;;;;;;;;5028655;28;19924;-77
2022/07/25 05:20:51;;;;;;;;;;;;;;;;;;5028113;28;19918;-78
2022/07/25 05:23:17;;;;;;;;;;;;;;;;;;5026761;28;19913;-78
2022/07/25 05:25:43;;;;;;;;;;;;;;;;;;5018926;28;20242;-78
2022/07/25 05:28:09;;;;;;;;;;;;;;;;;;5014969;28;19910;-78
2022/07/25 05:30:35;;;;;;;;;;;;;;;;;;5023249;28;19916;-78
2022/07/25 05:33:01;;;;;;;;;;;;;;;;;;5028861;28;19913;-78
2022/07/25 05:35:28;;;;;;;;;;;;;;;;;;5021239;28;20381;-78
2022/07/25 05:37:54;;;;;;;;;;;;;;;;;;5030551;28;20268;-78
2022/07/25 05:40:20;;;;;;;;;;;;;;;;;;5030426;28;19920;-79
2022/07/25 05:42:46;;;;;;;;;;;;;;;;;;5025584;28;19923;-78
2022/07/25 05:45:12;;;;;;;;;;;;;;;;;;5015052;28;19913;-77
2022/07/25 05:47:38;;;;;;;;;;;;;;;;;;5019539;28;19914;-77
2022/07/25 05:50:05;;;;;;;;;;;;;;;;;;5017613;28;20461;-77
2022/07/25 05:52:31;;;;;;;;;;;;;;;;;;5015247;28;19914;-77
2022/07/25 05:54:57;;;;;;;;;;;;;;;;;;5021165;28;19931;-77
2022/07/25 05:57:23;;;;;;;;;;;;;;;;;;5018312;28;19910;-78
2022/07/25 05:59:49;;;;;;;;;;;;;;;;;;5024755;28;19913;-78
2022/07/25 06:02:15;;;;;;;;;;;;;;;;;;5026096;28;19939;-77
2022/07/25 06:04:41;;;;;;;;;;;;;;;;;;5017621;28;19918;-77
2022/07/25 06:07:08;;;;;;;;;;;;;;;;;;5013838;28;19910;-77
2022/07/25 06:09:34;;;;;;;;;;;;;;;;;;5029295;28;19913;-77
2022/07/25 06:12:00;;;;;;;;;;;;;;;;;;5020560;28;19919;-76
2022/07/25 06:14:26;;;;;;;;;;;;;;;;;;5021945;28;19962;-76
2022/07/25 06:16:52;;;;;;;;;;;;;;;;;;5022449;28;19927;-77
2022/07/25 06:19:19;;;;;;;;;;;;;;;;;;5019916;28;19920;-76
2022/07/25 06:21:45;;;;;;;;;;;;;;;;;;5026722;28;19913;-77
2022/07/25 06:24:11;;;;;;;;;;;;;;;;;;5023614;28;19924;-77
2022/07/25 06:26:37;;;;;;;;;;;;;;;;;;5024961;28;19943;-77
2022/07/25 06:29:03;;;;;;;;;;;;;;;;;;5025636;28;19931;-78
2022/07/25 06:31:29;;;;;;;;;;;;;;;;;;5024823;28;19913;-79
2022/07/25 06:33:56;;;;;;;;;;;;;;;;;;5023873;28;19916;-77
2022/07/25 06:36:22;;;;;;;;;;;;;;;;;;5025386;28;20381;-79
2022/07/25 06:38:49;;;;;;;;;;;;;;;;;;5028122;28;19909;-77
2022/07/25 06:41:15;;;;;;;;;;;;;;;;;;5025164;28;19941;-77
2022/07/25 06:43:41;;;;;;;;;;;;;;;;;;5023440;28;19920;-76
2022/07/25 06:46:08;;;;;;;;;;;;;;;;;;5028123;28;20269;-76
2022/07/25 06:48:34;;;;;;;;;;;;;;;;;;5026348;28;19919;-77
2022/07/25 06:51:00;;;;;;;;;;;;;;;;;;5024876;28;19927;-77
2022/07/25 06:53:27;;;;;;;;;;;;;;;;;;5024478;28;19921;-77
2022/07/25 06:55:53;;;;;;;;;;;;;;;;;;5017894;28;20457;-77
2022/07/25 06:58:19;;;;;;;;;;;;;;;;;;5023776;28;20285;-77
2022/07/25 07:00:45;;;;;;;;;;;;;;;;;;5024999;28;19917;-77
2022/07/25 07:03:11;;;;;;;;;;;;;;;;;;5026679;28;19913;-77
2022/07/25 07:05:38;;;;;;;;;;;;;;;;;;5022991;28;19920;-78
2022/07/25 07:08:04;;;;;;;;;;;;;;;;;;5021481;28;19909;-77
2022/07/25 07:10:30;;;;;;;;;;;;;;;;;;5024684;28;19932;-78
2022/07/25 07:12:56;;;;;;;;;;;;;;;;;;5024090;28;19925;-77
2022/07/25 07:15:23;;;;;;;;;;;;;;;;;;5020315;28;19932;-78
2022/07/25 07:17:49;;;;;;;;;;;;;;;;;;5015284;28;19921;-77
2022/07/25 07:20:15;;;;;;;;;;;;;;;;;;5025506;28;19924;-77
2022/07/25 07:22:41;;;;;;;;;;;;;;;;;;5026580;28;19917;-77
2022/07/25 07:25:07;;;;;;;;;;;;;;;;;;5025800;28;19917;-77
2022/07/25 07:27:33;;;;;;;;;;;;;;;;;;5028849;28;19927;-77
2022/07/25 07:30:00;;;;;;;;;;;;;;;;;;5027820;28;19917;-78
2022/07/25 07:32:26;;;;;;;;;;;;;;;;;;5029315;28;20677;-78
2022/07/25 07:34:52;;;;;;;;;;;;;;;;;;5024162;28;19917;-79
2022/07/25 07:37:18;;;;;;;;;;;;;;;;;;5029107;28;19925;-77
2022/07/25 07:39:44;;;;;;;;;;;;;;;;;;5023694;28;19928;-78
2022/07/25 07:42:13;;;;;;;;;;;;;;;;;;5024296;28;19979;-79
2022/07/25 07:44:39;;;;;;;;;;;;;;;;;;5026848;28;19909;-79
2022/07/25 07:47:05;;;;;;;;;;;;;;;;;;5027271;28;19917;-78
2022/07/25 07:49:32;;;;;;;;;;;;;;;;;;5026027;28;19917;-78
2022/07/25 07:51:58;;;;;;;;;;;;;;;;;;5028743;28;19919;-78
2022/07/25 07:57:09;;;;;;;;;;;;;;;;;;5029011;28;19917;-79
2022/07/25 07:59:35;;;;;;;;;;;;;;;;;;5029096;28;19941;-78
2022/07/25 08:02:01;;;;;;;;;;;;;;;;;;5031893;28;20391;-78
2022/07/25 08:04:27;;;;;;;;;;;;;;;;;;5028810;28;19921;-78
2022/07/25 08:06:53;;;;;;;;;;;;;;;;;;5026581;28;19920;-80
2022/07/25 08:09:20;;;;;;;;;;;;;;;;;;5025314;28;19919;-78
2022/07/25 08:11:46;;;;;;;;;;;;;;;;;;5028160;28;19920;-76
2022/07/25 08:14:12;;;;;;;;;;;;;;;;;;5019943;28;19931;-79
2022/07/25 08:16:38;;;;;;;;;;;;;;;;;;5027389;28;19921;-78
2022/07/25 08:19:04;;;;;;;;;;;;;;;;;;5024684;28;19971;-79
2022/07/25 08:21:30;;;;;;;;;;;;;;;;;;5028579;28;19917;-79
2022/07/25 08:23:57;;;;;;;;;;;;;;;;;;5026790;28;19923;-78
2022/07/25 08:26:26;;;;;;;;;;;;;;;;;;5028374;28;20403;-78
2022/07/25 08:28:52;;;;;;;;;;;;;;;;;;5024081;28;19917;-77
2022/07/25 08:31:18;;;;;;;;;;;;;;;;;;5025700;28;19909;-77
2022/07/25 08:33:45;;;;;;;;;;;;;;;;;;5028625;28;19920;-77
2022/07/25 08:36:11;;;;;;;;;;;;;;;;;;5023155;28;19925;-77
2022/07/25 08:38:37;;;;;;;;;;;;;;;;;;5025512;28;19916;-78
2022/07/25 08:41:03;;;;;;;;;;;;;;;;;;5027210;28;20329;-77
2022/07/25 08:43:31;;;;;;;;;;;;;;;;;;5022178;28;20273;-77
2022/07/25 08:45:58;;;;;;;;;;;;;;;;;;5026342;28;19913;-77
2022/07/25 08:48:24;;;;;;;;;;;;;;;;;;5024672;28;19923;-78
2022/07/25 08:50:50;;;;;;;;;;;;;;;;;;5029219;28;19913;-77
2022/07/25 08:53:17;;;;;;;;;;;;;;;;;;5029375;28;19920;-78
2022/07/25 08:55:44;;;;;;;;;;;;;;;;;;5028729;28;20373;-78
2022/07/25 08:58:12;;;;;;;;;;;;;;;;;;5026566;28;19989;-78
2022/07/25 09:00:38;;;;;;;;;;;;;;;;;;5031328;28;19919;-78
2022/07/25 09:03:07;;;;;;;;;;;;;;;;;;5024742;28;19923;-77
2022/07/25 09:05:33;;;;;;;;;;;;;;;;;;5029760;28;19909;-79
2022/07/25 09:07:59;;;;;;;;;;;;;;;;;;5029357;28;19916;-78
2022/07/25 09:10:25;;;;;;;;;;;;;;;;;;5030267;28;19913;-78
2022/07/25 09:12:52;;;;;;;;;;;;;;;;;;5026969;28;19917;-78
2022/07/25 09:15:18;;;;;;;;;;;;;;;;;;5019470;28;19931;-77
2022/07/25 09:17:44;;;;;;;;;;;;;;;;;;5022830;28;19917;-78
2022/07/25 09:20:11;;;;;;;;;;;;;;;;;;5024388;28;19920;-78
2022/07/25 09:22:37;;;;;;;;;;;;;;;;;;5028179;28;19918;-76
2022/07/25 09:25:03;;;;;;;;;;;;;;;;;;5025647;28;19916;-76
2022/07/25 09:27:29;;;;;;;;;;;;;;;;;;5024517;28;19913;-78
2022/07/25 09:29:55;;;;;;;;;;;;;;;;;;5028512;28;19924;-77
2022/07/25 09:32:21;;;;;;;;;;;;;;;;;;5025265;28;19913;-77
2022/07/25 09:34:47;;;;;;;;;;;;;;;;;;5023432;28;20279;-77
2022/07/25 09:37:14;;;;;;;;;;;;;;;;;;5026434;28;19925;-77
2022/07/25 09:39:40;;;;;;;;;;;;;;;;;;5021199;28;19913;-77
2022/07/25 09:42:06;;;;;;;;;;;;;;;;;;5024581;28;19928;-77
2022/07/25 09:44:32;;;;;;;;;;;;;;;;;;5024299;28;19940;-78
2022/07/25 09:46:58;;;;;;;;;;;;;;;;;;5024399;28;20003;-76
2022/07/25 09:49:25;;;;;;;;;;;;;;;;;;5027009;28;19913;-77
2022/07/25 09:51:51;;;;;;;;;;;;;;;;;;5027839;28;19913;-76
2022/07/25 09:54:17;;;;;;;;;;;;;;;;;;5025245;28;19921;-76
2022/07/25 09:56:43;;;;;;;;;;;;;;;;;;5026983;28;19921;-76
2022/07/25 09:59:10;;;;;;;;;;;;;;;;;;5023083;28;19920;-76
2022/07/25 10:01:36;;;;;;;;;;;;;;;;;;5027738;28;19928;-76
2022/07/25 10:04:02;;;;;;;;;;;;;;;;;;5026077;28;20361;-76
2022/07/25 10:06:28;;;;;;;;;;;;;;;;;;5023929;28;19913;-78
2022/07/25 10:08:54;;;;;;;;;;;;;;;;;;5023996;28;19920;-75
2022/07/25 10:11:20;;;;;;;;;;;;;;;;;;5025532;28;19917;-74
2022/07/25 10:13:47;;;;;;;;;;;;;;;;;;5019784;28;19921;-77
2022/07/25 10:16:13;;;;;;;;;;;;;;;;;;5025698;28;19917;-75
2022/07/25 10:18:39;;;;;;;;;;;;;;;;;;5023049;28;20328;-75
2022/07/25 10:21:05;;;;;;;;;;;;;;;;;;5025691;28;19917;-75
2022/07/25 10:23:31;;;;;;;;;;;;;;;;;;5026066;28;19917;-75
2022/07/25 10:25:57;;;;;;;;;;;;;;;;;;5026976;28;19925;-76
2022/07/25 10:28:24;;;;;;;;;;;;;;;;;;5027930;28;19924;-75
2022/07/25 10:30:50;;;;;;;;;;;;;;;;;;5025123;28;19913;-75
2022/07/25 10:33:16;;;;;;;;;;;;;;;;;;5028837;28;19910;-75
2022/07/25 10:35:42;;;;;;;;;;;;;;;;;;5018846;28;19921;-74
2022/07/25 10:38:08;;;;;;;;;;;;;;;;;;5019161;28;19932;-75
2022/07/25 10:40:35;;;;;;;;;;;;;;;;;;5026294;28;19917;-77
2022/07/25 10:43:01;;;;;;;;;;;;;;;;;;5029015;28;19913;-77
2022/07/25 10:45:27;;;;;;;;;;;;;;;;;;5029089;28;19925;-78
2022/07/25 10:47:54;;;;;;;;;;;;;;;;;;5014608;28;19924;-78
2022/07/25 10:50:21;;;;;;;;;;;;;;;;;;5025552;28;19921;-78
2022/07/25 10:52:47;;;;;;;;;;;;;;;;;;5031003;28;19935;-77
2022/07/25 10:55:13;;;;;;;;;;;;;;;;;;5028184;28;19917;-77
2022/07/25 10:57:39;;;;;;;;;;;;;;;;;;5015708;28;19920;-79
2022/07/25 11:00:05;;;;;;;;;;;;;;;;;;5017783;28;19913;-77
2022/07/25 11:02:31;;;;;;;;;;;;;;;;;;5021189;28;20377;-78
2022/07/25 11:04:58;;;;;;;;;;;;;;;;;;5016096;28;19944;-78
2022/07/25 11:07:24;;;;;;;;;;;;;;;;;;5017912;28;19913;-77
2022/07/25 11:09:50;;;;;;;;;;;;;;;;;;5025395;28;19913;-77
2022/07/25 11:12:16;;;;;;;;;;;;;;;;;;5024085;28;19920;-77
2022/07/25 11:14:42;;;;;;;;;;;;;;;;;;5024479;28;19943;-77
2022/07/25 11:17:08;;;;;;;;;;;;;;;;;;5024344;28;19925;-76
2022/07/25 11:19:35;;;;;;;;;;;;;;;;;;5019907;28;19909;-76
2022/07/25 11:22:03;;;;;;;;;;;;;;;;;;5015172;28;19913;-76
2022/07/25 11:24:29;;;;;;;;;;;;;;;;;;5018641;28;19925;-78
2022/07/25 11:26:55;;;;;;;;;;;;;;;;;;5030617;28;19924;-78
2022/07/25 11:29:22;;;;;;;;;;;;;;;;;;5030706;28;19928;-78
2022/07/25 11:31:48;;;;;;;;;;;;;;;;;;5019941;28;19917;-78
2022/07/25 11:34:14;;;;;;;;;;;;;;;;;;5022757;28;19913;-78
2022/07/25 11:36:41;;;;;;;;;;;;;;;;;;5029226;28;19928;-78
2022/07/25 11:39:07;;;;;;;;;;;;;;;;;;5028804;28;19918;-78
2022/07/25 11:41:33;;;;;;;;;;;;;;;;;;5017240;28;19913;-78
2022/07/25 11:43:59;;;;;;;;;;;;;;;;;;5017439;28;19932;-78
2022/07/25 11:46:25;;;;;;;;;;;;;;;;;;5025945;28;19915;-78
2022/07/25 11:48:53;;;;;;;;;;;;;;;;;;5023094;28;19917;-78
2022/07/25 11:51:19;;;;;;;;;;;;;;;;;;5027475;28;19919;-78
2022/07/25 11:53:45;;;;;;;;;;;;;;;;;;5019874;28;19917;-78
2022/07/25 11:56:11;;;;;;;;;;;;;;;;;;5024119;28;19930;-78
2022/07/25 11:58:37;;;;;;;;;;;;;;;;;;5021242;28;19916;-78
2022/07/25 12:01:04;;;;;;;;;;;;;;;;;;5019967;28;19917;-78
2022/07/25 12:03:30;;;;;;;;;;;;;;;;;;5017083;28;19915;-78
2022/07/25 12:05:56;;;;;;;;;;;;;;;;;;5025596;28;19909;-78
2022/07/25 12:08:22;;;;;;;;;;;;;;;;;;5023206;28;19924;-78
2022/07/25 12:10:53;;;;;;;;;;;;;;;;;;5024902;28;19927;-78
2022/07/25 12:13:19;;;;;;;;;;;;;;;;;;5025122;28;19925;-78
2022/07/25 12:15:46;;;;;;;;;;;;;;;;;;5027628;28;19917;-78
2022/07/25 12:18:12;;;;;;;;;;;;;;;;;;5019886;28;19919;-78
2022/07/25 12:20:38;;;;;;;;;;;;;;;;;;5023117;28;19917;-78
2022/07/25 12:23:04;;;;;;;;;;;;;;;;;;5024628;28;20281;-78
2022/07/25 12:25:30;;;;;;;;;;;;;;;;;;5021661;28;19915;-78
2022/07/25 12:27:57;;;;;;;;;;;;;;;;;;5028625;28;20371;-78
2022/07/25 12:30:23;;;;;;;;;;;;;;;;;;5024053;28;19915;-78
2022/07/25 12:32:50;;;;;;;;;;;;;;;;;;5015093;28;19914;-78
2022/07/25 12:35:16;;;;;;;;;;;;;;;;;;5014943;28;19909;-78
2022/07/25 12:37:42;;;;;;;;;;;;;;;;;;5015927;28;19921;-78
2022/07/25 12:40:08;;;;;;;;;;;;;;;;;;5016099;28;19913;-78
2022/07/25 12:42:34;;;;;;;;;;;;;;;;;;5022667;28;19913;-78
2022/07/25 12:45:01;;;;;;;;;;;;;;;;;;5028342;28;19949;-78
2022/07/25 12:47:27;;;;;;;;;;;;;;;;;;5029674;28;19919;-78
2022/07/25 12:49:53;;;;;;;;;;;;;;;;;;5024697;28;20618;-78
2022/07/25 12:52:19;;;;;;;;;;;;;;;;;;5012992;28;19933;-78
2022/07/25 12:54:45;;;;;;;;;;;;;;;;;;5023221;28;20280;-78
2022/07/25 12:57:11;;;;;;;;;;;;;;;;;;5025687;28;19975;-78
2022/07/25 12:59:38;;;;;;;;;;;;;;;;;;5023514;28;19909;-78
2022/07/25 13:02:04;;;;;;;;;;;;;;;;;;5026341;28;19910;-78
2022/07/25 13:04:30;;;;;;;;;;;;;;;;;;5036453;28;19909;-78
2022/07/25 13:06:56;;;;;;;;;;;;;;;;;;5024569;28;19919;-77
2022/07/25 13:09:22;;;;;;;;;;;;;;;;;;5033875;28;19909;-78
2022/07/25 13:12:07;;;;;;;;;;;;;;;;;;5027380;28;20301;-77
2022/07/25 13:14:53;;;;;;;;;;;;;;;;;;5018939;28;19925;-78
2022/07/25 13:17:40;;;;;;;;;;;;;;;;;;5013627;28;19921;-76
2022/07/25 13:20:28;;;;;;;;;;;;;;;;;;5020661;28;19913;-77
2022/07/25 13:23:14;;;;;;;;;;;;;;;;;;5014396;28;20285;-77
2022/07/25 13:26:01;;;;;;;;;;;;;;;;;;5014944;28;19909;-77
2022/07/25 13:28:47;;;;;;;;;;;;;;;;;;5023194;28;19920;-78
2022/07/25 13:31:34;;;;;;;;;;;;;;;;;;5018463;28;19914;-78
2022/07/25 13:34:21;;;;;;;;;;;;;;;;;;5017904;28;19936;-79
2022/07/25 13:37:08;;;;;;;;;;;;;;;;;;5024105;28;19917;-78
2022/07/25 13:39:54;;;;;;;;;;;;;;;;;;5014231;28;20397;-77
2022/07/25 13:42:41;;;;;;;;;;;;;;;;;;5016479;28;19922;-77
2022/07/25 13:45:28;;;;;;;;;;;;;;;;;;5022564;28;19910;-77
2022/07/25 13:48:14;;;;;;;;;;;;;;;;;;5032072;28;20260;-77
2022/07/25 13:51:01;;;;;;;;;;;;;;;;;;5009979;28;20486;-78
2022/07/25 13:53:47;;;;;;;;;;;;;;;;;;5029727;28;19946;-77
2022/07/25 13:56:34;;;;;;;;;;;;;;;;;;5019242;28;19931;-78
2022/07/25 13:59:20;;;;;;;;;;;;;;;;;;5016376;28;20412;-77
2022/07/25 14:02:07;;;;;;;;;;;;;;;;;;5025852;28;19924;-78
2022/07/25 14:04:53;;;;;;;;;;;;;;;;;;5017898;28;19947;-77
2022/07/25 14:07:40;;;;;;;;;;;;;;;;;;5023737;28;19915;-77
2022/07/25 14:10:26;;;;;;;;;;;;;;;;;;5025650;28;19917;-78
2022/07/25 14:13:13;;;;;;;;;;;;;;;;;;5023693;28;19921;-78
2022/07/25 14:15:59;;;;;;;;;;;;;;;;;;5017511;28;20670;-78
2022/07/25 14:18:46;;;;;;;;;;;;;;;;;;5023020;28;19920;-78
2022/07/25 14:21:34;;;;;;;;;;;;;;;;;;5023292;28;21322;-78
2022/07/25 14:24:20;;;;;;;;;;;;;;;;;;5022879;28;20385;-78
2022/07/25 14:27:09;;;;;;;;;;;;;;;;;;5020094;28;19919;-78
2022/07/25 14:29:55;;;;;;;;;;;;;;;;;;5013481;28;19924;-78
2022/07/25 14:32:42;;;;;;;;;;;;;;;;;;5013526;28;20297;-78
2022/07/25 14:35:28;;;;;;;;;;;;;;;;;;5018576;28;19915;-78
2022/07/25 14:38:15;;;;;;;;;;;;;;;;;;5013407;28;20297;-78
2022/07/25 14:41:01;;;;;;;;;;;;;;;;;;5022969;28;19913;-78
2022/07/25 14:43:48;;;;;;;;;;;;;;;;;;5015031;28;19917;-76
2022/07/25 14:46:34;;;;;;;;;;;;;;;;;;5012630;28;19916;-79
2022/07/25 14:49:21;;;;;;;;;;;;;;;;;;5009481;28;19920;-77
2022/07/25 14:52:07;;;;;;;;;;;;;;;;;;5010358;28;20294;-77
2022/07/25 14:54:54;;;;;;;;;;;;;;;;;;5008858;28;19913;-77
2022/07/25 14:57:40;;;;;;;;;;;;;;;;;;5018236;28;19918;-77
2022/07/25 15:00:27;;;;;;;;;;;;;;;;;;5027122;28;20226;-78
2022/07/25 15:03:14;;;;;;;;;;;;;;;;;;5015974;28;19913;-78
2022/07/25 15:06:00;;;;;;;;;;;;;;;;;;5022676;28;19909;-78
2022/07/25 15:08:50;;;;;;;;;;;;;;;;;;5020298;28;19913;-78
2022/07/25 15:11:36;;;;;;;;;;;;;;;;;;5016738;28;19919;-78
2022/07/25 15:14:23;;;;;;;;;;;;;;;;;;5029469;28;19929;-78
2022/07/25 15:17:09;;;;;;;;;;;;;;;;;;5025885;28;19922;-78
2022/07/25 15:19:56;;;;;;;;;;;;;;;;;;5026313;28;19917;-78
2022/07/25 15:22:42;;;;;;;;;;;;;;;;;;5009081;28;19909;-78
2022/07/25 15:25:29;;;;;;;;;;;;;;;;;;5015564;28;19919;-78
2022/07/25 15:28:15;;;;;;;;;;;;;;;;;;5018976;28;19913;-77
2022/07/25 15:31:02;;;;;;;;;;;;;;;;;;5014708;28;19913;-78
2022/07/25 15:33:48;;;;;;;;;;;;;;;;;;5020057;28;19919;-79
2022/07/25 15:36:34;;;;;;;;;;;;;;;;;;5025252;28;19921;-78
2022/07/25 15:39:22;;;;;;;;;;;;;;;;;;5027769;28;19936;-78
2022/07/25 15:42:08;;;;;;;;;;;;;;;;;;5019412;28;20230;-79
2022/07/25 15:44:54;;;;;;;;;;;;;;;;;;5016393;28;19922;-79
2022/07/25 15:47:41;;;;;;;;;;;;;;;;;;5012173;28;20003;-78
2022/07/25 15:50:27;;;;;;;;;;;;;;;;;;5027588;28;20377;-79
2022/07/25 15:53:14;;;;;;;;;;;;;;;;;;5038935;28;19918;-79
2022/07/25 15:56:01;;;;;;;;;;;;;;;;;;5014890;28;20526;-79
2022/07/25 15:58:51;;;;;;;;;;;;;;;;;;5017151;28;19943;-78
2022/07/25 16:01:37;;;;;;;;;;;;;;;;;;5020273;28;19919;-79
2022/07/25 16:04:24;;;;;;;;;;;;;;;;;;5025377;28;20306;-79
2022/07/25 16:07:11;;;;;;;;;;;;;;;;;;5035022;28;19915;-79
2022/07/25 16:09:57;;;;;;;;;;;;;;;;;;5037690;28;19909;-79
2022/07/25 16:12:44;;;;;;;;;;;;;;;;;;5036126;28;19909;-79
2022/07/25 16:15:30;;;;;;;;;;;;;;;;;;5034546;28;19944;-79
2022/07/25 16:18:17;;;;;;;;;;;;;;;;;;5024408;28;19917;-77
2022/07/25 16:21:03;;;;;;;;;;;;;;;;;;5035395;28;19916;-78
2022/07/25 16:23:50;;;;;;;;;;;;;;;;;;5029690;28;19921;-78
2022/07/25 16:26:36;;;;;;;;;;;;;;;;;;5027969;28;20579;-78
2022/07/25 16:29:23;;;;;;;;;;;;;;;;;;5029898;28;19919;-77
2022/07/25 16:32:09;;;;;;;;;;;;;;;;;;5024853;28;19940;-78
2022/07/25 16:34:56;;;;;;;;;;;;;;;;;;5025316;28;19920;-78
2022/07/25 16:37:42;;;;;;;;;;;;;;;;;;5030156;28;19929;-79
2022/07/25 16:40:29;;;;;;;;;;;;;;;;;;5035189;28;19909;-78
2022/07/25 16:43:16;;;;;;;;;;;;;;;;;;5032545;28;19915;-78
2022/07/25 16:46:02;;;;;;;;;;;;;;;;;;5020054;28;19910;-78
2022/07/25 16:48:49;;;;;;;;;;;;;;;;;;5046311;28;19916;-78
2022/07/25 16:51:35;;;;;;;;;;;;;;;;;;5032110;28;19915;-78
2022/07/25 16:54:22;;;;;;;;;;;;;;;;;;5020517;28;19913;-78
2022/07/25 16:57:09;;;;;;;;;;;;;;;;;;5026666;28;20297;-81
2022/07/25 16:59:55;;;;;;;;;;;;;;;;;;5027928;28;20342;-79
2022/07/25 17:02:42;;;;;;;;;;;;;;;;;;5022023;28;19909;-78
2022/07/25 17:05:29;;;;;;;;;;;;;;;;;;5030361;28;19909;-78
2022/07/25 17:08:15;;;;;;;;;;;;;;;;;;5032073;28;19910;-79
2022/07/25 17:11:02;;;;;;;;;;;;;;;;;;5021909;28;19913;-79